createdAt,value
2023-04-01T00:00:33.872Z,68.50
2023-04-01T00:01:35.938Z,68.50
2023-04-01T00:02:39.145Z,68.50
2023-04-01T00:03:42.033Z,68.40
2023-04-01T00:04:45.566Z,68.60
2023-04-01T00:05:48.711Z,68.50
2023-04-01T00:06:52.645Z,68.50
2023-04-01T00:07:56.189Z,68.50
2023-04-01T00:08:59.264Z,68.90
2023-04-01T00:10:01.612Z,68.80
2023-04-01T00:11:04.783Z,68.80
2023-04-01T00:12:07.024Z,68.90
2023-04-01T00:13:10.455Z,68.70
2023-04-01T00:14:12.781Z,68.70
2023-04-01T00:15:16.586Z,69.10
2023-04-01T00:16:22.279Z,68.40
2023-04-01T00:17:26.005Z,68.50
2023-04-01T00:18:28.672Z,68.50
2023-04-01T00:19:32.879Z,68.60
2023-04-01T00:20:35.370Z,68.50
2023-04-01T00:21:38.579Z,68.60
2023-04-01T00:22:40.978Z,68.50
2023-04-01T00:23:45.530Z,68.60
2023-04-01T00:24:47.690Z,68.50
2023-04-01T00:25:51.649Z,68.60
2023-04-01T00:26:53.722Z,68.40
2023-04-01T00:27:56.836Z,68.30
2023-04-01T00:28:59.911Z,68.40
2023-04-01T00:30:03.244Z,68.50
2023-04-01T00:31:07.264Z,68.80
2023-04-01T00:32:10.634Z,69.00
2023-04-01T00:33:12.913Z,69.20
2023-04-01T00:34:16.216Z,69.30
2023-04-01T00:35:18.497Z,69.10
2023-04-01T00:36:24.169Z,69.20
2023-04-01T00:37:27.485Z,68.80
2023-04-01T00:38:30.614Z,69.10
2023-04-01T00:39:35.839Z,69.10
2023-04-01T00:40:41.296Z,69.30
2023-04-01T00:41:46.222Z,69.40
2023-04-01T00:42:49.272Z,69.00
2023-04-01T00:43:52.603Z,69.20
2023-04-01T00:44:57.351Z,69.30
2023-04-01T00:45:59.442Z,69.50
2023-04-01T00:47:03.561Z,69.50
2023-04-01T00:48:11.402Z,69.40
2023-04-01T00:49:16.010Z,69.40
2023-04-01T00:50:18.172Z,69.70
2023-04-01T00:51:26.014Z,69.50
2023-04-01T00:52:28.632Z,69.30
2023-04-01T00:53:34.319Z,69.20
2023-04-01T00:54:43.128Z,69.30
2023-04-01T00:55:52.219Z,69.30
2023-04-01T00:57:00.446Z,69.30
2023-04-01T00:58:10.580Z,69.30
2023-04-01T00:59:19.650Z,69.30
2023-04-01T01:00:23.055Z,69.30
2023-04-01T01:01:26.929Z,69.30
2023-04-01T01:02:30.334Z,69.30
2023-04-01T01:03:32.546Z,69.90
2023-04-01T01:04:37.376Z,69.30
2023-04-01T01:05:55.731Z,69.40
2023-04-01T01:07:12.439Z,69.60
2023-04-01T01:08:26.372Z,69.60
2023-04-01T01:09:40.707Z,69.60
2023-04-01T01:10:49.640Z,69.40
2023-04-01T01:12:00.740Z,69.50
2023-04-01T01:13:12.517Z,69.40
2023-04-01T01:14:33.535Z,69.30
2023-04-01T01:15:45.220Z,69.40
2023-04-01T01:16:57.657Z,69.50
2023-04-01T01:18:08.392Z,69.40
2023-04-01T01:19:27.429Z,69.40
2023-04-01T01:20:59.312Z,69.40
2023-04-01T01:22:27.818Z,69.20
2023-04-01T01:24:06.609Z,69.40
2023-04-01T01:25:31.770Z,69.30
2023-04-01T01:27:01.559Z,69.30
2023-04-01T01:28:26.986Z,69.50
2023-04-01T01:30:07.996Z,69.30
2023-04-01T01:31:21.029Z,69.30
2023-04-01T01:32:46.781Z,69.20
2023-04-01T01:34:16.478Z,69.10
2023-04-01T01:35:27.399Z,69.20
2023-04-01T01:36:35.629Z,69.20
2023-04-01T01:37:42.115Z,69.30
2023-04-01T01:38:49.731Z,69.30
2023-04-01T01:39:56.373Z,69.00
2023-04-01T01:41:01.445Z,69.10
2023-04-01T01:42:08.761Z,68.90
2023-04-01T01:43:16.940Z,69.10
2023-04-01T01:44:22.528Z,69.30
2023-04-01T01:45:28.707Z,69.20
2023-04-01T01:46:32.561Z,69.00
2023-04-01T01:47:38.350Z,69.00
2023-04-01T01:48:44.521Z,68.90
2023-04-01T01:49:48.352Z,69.00
2023-04-01T01:50:53.056Z,69.00
2023-04-01T01:51:56.383Z,69.00
2023-04-01T01:53:03.842Z,69.00
2023-04-01T01:54:06.989Z,69.00
2023-04-01T01:55:27.177Z,69.10
2023-04-01T01:56:32.762Z,69.00
2023-04-01T01:57:38.925Z,69.10
2023-04-01T01:58:46.866Z,69.00
2023-04-01T01:59:52.048Z,68.90
2023-04-01T02:01:00.922Z,68.90
2023-04-01T02:02:08.844Z,69.00
2023-04-01T02:03:15.624Z,69.00
2023-04-01T02:04:20.644Z,69.00
2023-04-01T02:05:27.563Z,68.90
2023-04-01T02:06:38.318Z,69.00
2023-04-01T02:07:46.474Z,69.10
2023-04-01T02:08:53.808Z,69.10
2023-04-01T02:09:57.397Z,69.10
2023-04-01T02:11:03.048Z,69.40
2023-04-01T02:12:09.941Z,69.40
2023-04-01T02:13:22.920Z,69.50
2023-04-01T02:14:30.658Z,69.40
2023-04-01T02:15:43.090Z,69.40
2023-04-01T02:16:52.186Z,69.30
2023-04-01T02:17:57.913Z,69.40
2023-04-01T02:19:04.223Z,69.20
2023-04-01T02:20:12.421Z,69.20
2023-04-01T02:21:19.392Z,69.20
2023-04-01T02:22:26.711Z,69.00
2023-04-01T02:23:31.028Z,69.10
2023-04-01T02:24:38.867Z,69.10
2023-04-01T02:25:45.441Z,69.10
2023-04-01T02:26:48.352Z,68.90
2023-04-01T02:27:52.133Z,68.80
2023-04-01T02:28:56.271Z,68.90
2023-04-01T02:30:00.089Z,68.70
2023-04-01T02:31:04.680Z,68.70
2023-04-01T02:32:09.500Z,68.80
2023-04-01T02:33:11.926Z,68.60
2023-04-01T02:34:16.413Z,68.50
2023-04-01T02:35:19.731Z,68.40
2023-04-01T02:36:23.389Z,68.70
2023-04-01T02:37:27.123Z,68.80
2023-04-01T02:38:30.202Z,68.60
2023-04-01T02:39:32.726Z,68.60
2023-04-01T02:40:48.422Z,68.60
2023-04-01T02:41:50.548Z,68.50
2023-04-01T02:42:53.669Z,68.80
2023-04-01T02:43:58.335Z,68.70
2023-04-01T02:45:00.692Z,68.80
2023-04-01T02:46:03.846Z,68.70
2023-04-01T02:47:06.178Z,68.60
2023-04-01T02:48:09.304Z,68.80
2023-04-01T02:49:11.500Z,68.80
2023-04-01T02:50:14.655Z,68.50
2023-04-01T02:51:18.323Z,68.50
2023-04-01T02:52:21.609Z,68.50
2023-04-01T02:53:25.404Z,68.70
2023-04-01T02:54:28.500Z,68.50
2023-04-01T02:55:31.531Z,68.60
2023-04-01T02:56:34.941Z,68.80
2023-04-01T02:57:37.059Z,68.80
2023-04-01T02:58:40.389Z,68.80
2023-04-01T02:59:42.581Z,68.80
2023-04-01T03:00:46.013Z,68.80
2023-04-01T03:01:48.119Z,68.90
2023-04-01T03:02:51.304Z,68.70
2023-04-01T03:03:53.508Z,68.90
2023-04-01T03:04:56.596Z,68.80
2023-04-01T03:06:01.085Z,68.70
2023-04-01T03:07:04.333Z,68.90
2023-04-01T03:08:07.349Z,69.10
2023-04-01T03:09:11.802Z,68.80
2023-04-01T03:10:14.239Z,69.00
2023-04-01T03:11:17.335Z,69.10
2023-04-01T03:12:19.466Z,69.10
2023-04-01T03:13:22.525Z,69.00
2023-04-01T03:14:24.666Z,69.40
2023-04-01T03:15:27.799Z,68.90
2023-04-01T03:16:29.999Z,69.00
2023-04-01T03:17:33.345Z,69.00
2023-04-01T03:18:35.592Z,68.90
2023-04-01T03:19:38.690Z,69.00
2023-04-01T03:20:40.939Z,69.00
2023-04-01T03:21:44.046Z,69.10
2023-04-01T03:22:46.913Z,69.80
2023-04-01T03:23:50.148Z,69.30
2023-04-01T03:24:53.603Z,69.30
2023-04-01T03:25:59.768Z,69.30
2023-04-01T03:27:01.894Z,69.20
2023-04-01T03:28:05.340Z,69.20
2023-04-01T03:29:07.476Z,69.20
2023-04-01T03:30:11.726Z,69.10
2023-04-01T03:31:14.366Z,69.00
2023-04-01T03:32:17.531Z,69.00
2023-04-01T03:33:19.618Z,69.00
2023-04-01T03:34:22.774Z,68.90
2023-04-01T03:35:25.224Z,69.00
2023-04-01T03:36:28.376Z,69.10
2023-04-01T03:37:30.660Z,69.20
2023-04-01T03:38:33.910Z,69.00
2023-04-01T03:39:36.324Z,69.00
2023-04-01T03:40:44.564Z,68.90
2023-04-01T03:41:47.753Z,68.90
2023-04-01T03:42:51.485Z,68.90
2023-04-01T03:43:55.096Z,68.80
2023-04-01T03:44:58.218Z,68.90
2023-04-01T03:46:00.451Z,69.00
2023-04-01T03:47:04.025Z,68.90
2023-04-01T03:48:06.370Z,69.10
2023-04-01T03:49:12.511Z,68.90
2023-04-01T03:50:14.776Z,68.90
2023-04-01T03:51:17.877Z,69.00
2023-04-01T03:52:20.044Z,69.00
2023-04-01T03:53:23.148Z,69.10
2023-04-01T03:54:25.442Z,69.10
2023-04-01T03:55:28.617Z,69.20
2023-04-01T03:56:32.231Z,69.10
2023-04-01T03:57:35.785Z,69.20
2023-04-01T03:58:39.780Z,69.30
2023-04-01T03:59:42.978Z,69.20
2023-04-01T04:00:45.460Z,69.30
2023-04-01T04:01:49.457Z,69.40
2023-04-01T04:02:51.637Z,69.30
2023-04-01T04:03:55.460Z,69.40
2023-04-01T04:04:57.786Z,69.40
2023-04-01T04:06:00.960Z,69.40
2023-04-01T04:07:03.283Z,69.40
2023-04-01T04:08:06.844Z,69.40
2023-04-01T04:09:09.188Z,69.60
2023-04-01T04:10:12.680Z,69.70
2023-04-01T04:11:15.019Z,69.60
2023-04-01T04:12:19.575Z,69.60
2023-04-01T04:13:27.062Z,69.50
2023-04-01T04:14:30.301Z,69.40
2023-04-01T04:15:32.670Z,69.30
2023-04-01T04:16:38.672Z,69.30
2023-04-01T04:17:41.146Z,69.10
2023-04-01T04:18:44.888Z,69.20
2023-04-01T04:19:48.166Z,69.20
2023-04-01T04:20:52.440Z,69.10
2023-04-01T04:21:55.646Z,69.00
2023-04-01T04:22:57.895Z,69.10
2023-04-01T04:24:01.081Z,69.10
2023-04-01T04:25:03.570Z,69.20
2023-04-01T04:26:09.161Z,69.00
2023-04-01T04:27:11.273Z,68.90
2023-04-01T04:28:15.849Z,68.90
2023-04-01T04:29:18.211Z,68.90
2023-04-01T04:30:21.524Z,68.90
2023-04-01T04:31:26.448Z,68.80
2023-04-01T04:32:29.415Z,68.80
2023-04-01T04:33:33.443Z,68.80
2023-04-01T04:34:35.650Z,68.70
2023-04-01T04:35:38.825Z,68.70
2023-04-01T04:36:42.229Z,68.70
2023-04-01T04:37:47.373Z,68.60
2023-04-01T04:38:51.109Z,68.60
2023-04-01T04:39:53.410Z,68.60
2023-04-01T04:40:56.610Z,68.50
2023-04-01T04:41:58.803Z,68.30
2023-04-01T04:43:02.063Z,68.30
2023-04-01T04:44:06.369Z,68.30
2023-04-01T04:45:10.051Z,68.20
2023-04-01T04:46:12.540Z,68.20
2023-04-01T04:47:17.075Z,67.90
2023-04-01T04:48:19.922Z,68.00
2023-04-01T04:49:23.949Z,67.90
2023-04-01T04:50:26.495Z,68.10
2023-04-01T04:51:29.776Z,68.20
2023-04-01T04:52:32.028Z,67.90
2023-04-01T04:53:35.274Z,68.00
2023-04-01T04:54:37.648Z,68.20
2023-04-01T04:55:45.985Z,68.20
2023-04-01T04:56:48.226Z,68.30
2023-04-01T04:57:51.591Z,68.40
2023-04-01T04:58:54.120Z,68.30
2023-04-01T04:59:58.700Z,68.30
2023-04-01T05:01:06.347Z,68.20
2023-04-01T05:02:09.846Z,68.30
2023-04-01T05:03:12.425Z,68.20
2023-04-01T05:04:15.695Z,68.20
2023-04-01T05:05:18.034Z,68.30
2023-04-01T05:06:23.631Z,68.40
2023-04-01T05:07:26.008Z,68.50
2023-04-01T05:08:29.187Z,68.50
2023-04-01T05:09:32.211Z,68.50
2023-04-01T05:10:35.486Z,68.50
2023-04-01T05:11:37.722Z,68.60
2023-04-01T05:12:41.115Z,68.50
2023-04-01T05:13:44.336Z,68.80
2023-04-01T05:14:47.502Z,68.80
2023-04-01T05:15:51.336Z,68.70
2023-04-01T05:16:55.476Z,68.80
2023-04-01T05:17:57.934Z,68.90
2023-04-01T05:19:01.150Z,68.80
2023-04-01T05:20:03.774Z,68.80
2023-04-01T05:21:09.164Z,68.60
2023-04-01T05:22:11.398Z,68.80
2023-04-01T05:23:14.623Z,68.90
2023-04-01T05:24:16.813Z,69.10
2023-04-01T05:25:19.991Z,69.10
2023-04-01T05:26:22.163Z,69.10
2023-04-01T05:27:25.645Z,69.00
2023-04-01T05:28:27.801Z,69.10
2023-04-01T05:29:30.993Z,69.30
2023-04-01T05:30:33.144Z,69.50
2023-04-01T05:31:37.728Z,69.50
2023-04-01T05:32:39.929Z,69.60
2023-04-01T05:33:43.230Z,69.50
2023-04-01T05:34:45.549Z,69.50
2023-04-01T05:35:48.794Z,69.60
2023-04-01T05:36:51.427Z,69.50
2023-04-01T05:37:58.635Z,69.50
2023-04-01T05:39:02.431Z,69.70
2023-04-01T05:40:12.527Z,69.60
2023-04-01T05:41:20.447Z,69.80
2023-04-01T05:42:28.336Z,69.90
2023-04-01T05:43:31.347Z,69.70
2023-04-01T05:44:34.569Z,69.70
2023-04-01T05:45:36.744Z,69.70
2023-04-01T05:46:41.359Z,69.90
2023-04-01T05:47:46.349Z,69.90
2023-04-01T05:48:49.737Z,69.90
2023-04-01T05:49:51.966Z,69.90
2023-04-01T05:50:55.342Z,69.90
2023-04-01T05:51:57.995Z,69.90
2023-04-01T05:53:01.209Z,69.90
2023-04-01T05:54:04.931Z,69.70
2023-04-01T05:55:08.951Z,69.80
2023-04-01T05:56:12.317Z,70.00
2023-04-01T05:57:14.578Z,69.70
2023-04-01T05:58:17.887Z,69.90
2023-04-01T05:59:20.236Z,70.10
2023-04-01T06:00:23.481Z,70.00
2023-04-01T06:01:25.841Z,69.80
2023-04-01T06:02:30.511Z,70.00
2023-04-01T06:03:32.992Z,70.00
2023-04-01T06:04:41.218Z,69.80
2023-04-01T06:05:44.871Z,69.50
2023-04-01T06:06:48.129Z,69.50
2023-04-01T06:07:56.235Z,69.60
2023-04-01T06:09:03.994Z,69.30
2023-04-01T06:10:13.806Z,69.30
2023-04-01T06:11:30.995Z,69.30
2023-04-01T06:12:49.995Z,69.30
2023-04-01T06:14:12.345Z,69.20
2023-04-01T06:15:33.003Z,69.20
2023-04-01T06:16:48.270Z,68.90
2023-04-01T06:18:22.061Z,69.20
2023-04-01T06:19:36.984Z,69.50
2023-04-01T06:20:52.221Z,69.40
2023-04-01T06:22:44.167Z,69.20
2023-04-01T06:24:02.181Z,69.40
2023-04-01T06:25:33.506Z,69.00
2023-04-01T06:26:43.321Z,69.20
2023-04-01T06:28:02.619Z,69.40
2023-04-01T06:29:24.652Z,69.00
2023-04-01T06:30:40.437Z,69.00
2023-04-01T06:32:07.924Z,69.30
2023-04-01T06:33:43.624Z,69.20
2023-04-01T06:35:18.433Z,69.30
2023-04-01T06:36:55.732Z,69.30
2023-04-01T06:38:27.540Z,69.10
2023-04-01T06:39:56.718Z,68.90
2023-04-01T06:41:41.029Z,69.00
2023-04-01T06:42:58.937Z,69.20
2023-04-01T06:44:16.982Z,69.40
2023-04-01T06:45:34.309Z,68.80
2023-04-01T06:46:48.998Z,69.40
2023-04-01T06:48:07.060Z,69.20
2023-04-01T06:49:39.707Z,69.10
2023-04-01T06:50:50.790Z,69.10
2023-04-01T06:52:06.330Z,69.00
2023-04-01T06:53:18.682Z,69.20
2023-04-01T06:54:27.005Z,69.10
2023-04-01T06:55:38.943Z,68.50
2023-04-01T06:56:47.452Z,68.60
2023-04-01T06:57:55.016Z,68.70
2023-04-01T06:59:03.392Z,68.60
2023-04-01T07:00:17.370Z,68.60
2023-04-01T07:01:26.214Z,68.70
2023-04-01T07:02:40.790Z,68.80
2023-04-01T07:03:50.673Z,68.90
2023-04-01T07:05:00.323Z,69.10
2023-04-01T07:06:06.326Z,68.50
2023-04-01T07:07:22.080Z,68.50
2023-04-01T07:08:29.760Z,68.70
2023-04-01T07:09:37.585Z,68.50
2023-04-01T07:10:48.948Z,68.50
2023-04-01T07:11:55.922Z,68.50
2023-04-01T07:13:05.962Z,68.50
2023-04-01T07:14:18.984Z,68.50
2023-04-01T07:15:27.308Z,68.20
2023-04-01T07:16:36.377Z,68.30
2023-04-01T07:17:42.488Z,68.80
2023-04-01T07:18:50.847Z,68.40
2023-04-01T07:20:02.006Z,68.30
2023-04-01T07:21:06.744Z,69.00
2023-04-01T07:22:28.046Z,68.30
2023-04-01T07:23:39.120Z,68.30
2023-04-01T07:24:49.128Z,68.40
2023-04-01T07:26:00.707Z,67.70
2023-04-01T07:27:03.457Z,67.60
2023-04-01T07:28:24.262Z,67.60
2023-04-01T07:29:29.985Z,67.40
2023-04-01T07:30:54.008Z,67.20
2023-04-01T07:32:24.408Z,66.80
2023-04-01T07:33:39.935Z,66.40
2023-04-01T07:35:01.846Z,66.60
2023-04-01T07:36:12.037Z,66.80
2023-04-01T07:37:24.377Z,66.60
2023-04-01T07:38:41.416Z,65.90
2023-04-01T07:39:56.654Z,66.30
2023-04-01T07:41:13.828Z,66.00
2023-04-01T07:42:29.266Z,65.90
2023-04-01T07:43:52.744Z,66.20
2023-04-01T07:45:09.503Z,66.20
2023-04-01T07:46:24.752Z,66.10
2023-04-01T07:47:52.622Z,65.90
2023-04-01T07:49:01.858Z,65.90
2023-04-01T07:50:21.562Z,66.00
2023-04-01T07:51:33.960Z,65.80
2023-04-01T07:52:46.973Z,64.80
2023-04-01T07:54:02.973Z,64.80
2023-04-01T07:55:16.545Z,64.80
2023-04-01T07:56:30.261Z,65.00
2023-04-01T07:57:39.976Z,64.80
2023-04-01T07:58:57.600Z,65.10
2023-04-01T08:00:09.487Z,65.70
2023-04-01T08:01:26.415Z,64.90
2023-04-01T08:02:50.159Z,64.30
2023-04-01T08:04:17.033Z,63.90
2023-04-01T08:05:30.426Z,64.10
2023-04-01T08:06:52.525Z,63.80
2023-04-01T08:08:07.294Z,63.40
2023-04-01T08:09:27.528Z,62.80
2023-04-01T08:10:43.121Z,63.30
2023-04-01T08:12:05.087Z,62.70
2023-04-01T08:14:23.471Z,63.10
2023-04-01T08:16:09.945Z,63.70
2023-04-01T08:17:24.736Z,62.90
2023-04-01T08:18:44.455Z,62.50
2023-04-01T08:20:04.192Z,62.60
2023-04-01T08:21:17.949Z,63.00
2023-04-01T08:22:28.092Z,63.10
2023-04-01T08:23:35.889Z,63.10
2023-04-01T08:24:48.099Z,63.40
2023-04-01T08:25:58.679Z,63.50
2023-04-01T08:27:07.141Z,63.40
2023-04-01T08:28:19.683Z,63.50
2023-04-01T08:29:27.247Z,62.10
2023-04-01T08:30:41.100Z,61.80
2023-04-01T08:31:53.551Z,62.10
2023-04-01T08:33:01.150Z,62.50
2023-04-01T08:34:12.606Z,62.60
2023-04-01T08:35:22.712Z,62.70
2023-04-01T08:36:34.850Z,62.80
2023-04-01T08:37:42.336Z,62.90
2023-04-01T08:38:51.531Z,63.10
2023-04-01T08:39:59.898Z,62.20
2023-04-01T08:41:29.615Z,62.50
2023-04-01T08:43:00.274Z,62.60
2023-04-01T08:44:34.806Z,62.60
2023-04-01T08:45:58.644Z,62.50
2023-04-01T08:47:32.517Z,62.20
2023-04-01T08:48:50.877Z,62.40
2023-04-01T08:50:35.805Z,62.70
2023-04-01T08:52:21.234Z,63.20
2023-04-01T08:53:40.174Z,62.80
2023-04-01T08:55:16.896Z,62.80
2023-04-01T08:56:24.686Z,63.40
2023-04-01T08:57:48.338Z,62.70
2023-04-01T08:59:29.614Z,62.70
2023-04-01T09:00:39.909Z,62.60
2023-04-01T09:02:02.605Z,62.40
2023-04-01T09:03:36.652Z,62.80
2023-04-01T09:05:18.490Z,62.70
2023-04-01T09:06:40.586Z,62.70
2023-04-01T09:07:54.449Z,62.60
2023-04-01T09:09:31.059Z,62.30
2023-04-01T09:10:58.653Z,62.80
2023-04-01T09:12:30.646Z,62.60
2023-04-01T09:14:03.028Z,62.90
2023-04-01T09:15:44.707Z,61.70
2023-04-01T09:17:32.434Z,62.20
2023-04-01T09:19:00.620Z,62.50
2023-04-01T09:20:29.553Z,62.50
2023-04-01T09:22:00.427Z,62.50
2023-04-01T09:23:31.640Z,62.20
2023-04-01T09:24:54.336Z,62.20
2023-04-01T09:26:14.682Z,62.30
2023-04-01T09:27:29.501Z,62.60
2023-04-01T09:28:50.651Z,62.70
2023-04-01T09:30:33.112Z,62.70
2023-04-01T09:32:03.764Z,62.40
2023-04-01T09:33:53.457Z,62.70
2023-04-01T09:34:59.362Z,62.70
2023-04-01T09:36:09.179Z,62.80
2023-04-01T09:37:29.642Z,62.80
2023-04-01T09:38:52.424Z,62.30
2023-04-01T09:40:19.812Z,62.20
2023-04-01T09:41:32.700Z,62.30
2023-04-01T09:42:45.393Z,62.60
2023-04-01T09:44:03.991Z,62.30
2023-04-01T09:45:18.252Z,62.40
2023-04-01T09:46:36.473Z,62.70
2023-04-01T09:48:04.734Z,62.80
2023-04-01T09:49:39.136Z,63.00
2023-04-01T09:50:55.187Z,62.60
2023-04-01T09:52:22.877Z,62.10
2023-04-01T09:53:49.155Z,62.40
2023-04-01T09:55:15.587Z,62.50
2023-04-01T09:56:53.824Z,62.90
2023-04-01T09:58:30.215Z,62.40
2023-04-01T10:00:06.115Z,62.90
2023-04-01T10:01:48.068Z,62.70
2023-04-01T10:03:28.368Z,62.70
2023-04-01T10:05:18.861Z,63.50
2023-04-01T10:07:02.061Z,63.40
2023-04-01T10:08:33.588Z,62.90
2023-04-01T10:10:13.040Z,63.50
2023-04-01T10:12:12.579Z,63.50
2023-04-01T10:14:02.950Z,63.10
2023-04-01T10:15:43.346Z,63.40
2023-04-01T10:17:24.379Z,63.00
2023-04-01T10:19:02.413Z,62.90
2023-04-01T10:20:30.054Z,62.60
2023-04-01T10:22:02.137Z,61.90
2023-04-01T10:23:28.004Z,60.80
2023-04-01T10:25:13.024Z,60.40
2023-04-01T10:26:59.414Z,60.90
2023-04-01T10:28:43.178Z,59.60
2023-04-01T10:30:16.304Z,59.60
2023-04-01T10:32:07.437Z,59.60
2023-04-01T10:34:00.164Z,59.80
2023-04-01T10:35:30.458Z,59.70
2023-04-01T10:36:55.439Z,59.30
2023-04-01T10:38:37.368Z,59.00
2023-04-01T10:40:23.504Z,59.70
2023-04-01T10:42:00.998Z,58.50
2023-04-01T10:43:52.448Z,59.00
2023-04-01T10:45:30.064Z,58.70
2023-04-01T10:47:29.140Z,58.30
2023-04-01T10:48:57.793Z,59.10
2023-04-01T10:50:24.426Z,59.20
2023-04-01T10:52:06.724Z,59.10
2023-04-01T10:53:35.988Z,58.90
2023-04-01T10:54:49.607Z,59.20
2023-04-01T10:56:31.796Z,59.30
2023-04-01T10:58:07.007Z,59.40
2023-04-01T10:59:57.908Z,58.60
2023-04-01T11:01:38.600Z,59.20
2023-04-01T11:03:12.662Z,58.40
2023-04-01T11:04:58.125Z,58.90
2023-04-01T11:06:43.102Z,59.60
2023-04-01T11:08:36.584Z,59.70
2023-04-01T11:10:11.913Z,58.50
2023-04-01T11:11:47.102Z,58.30
2023-04-01T11:13:34.880Z,57.80
2023-04-01T11:15:10.501Z,58.00
2023-04-01T11:16:51.155Z,57.60
2023-04-01T11:18:32.321Z,56.60
2023-04-01T11:20:14.074Z,57.40
2023-04-01T11:21:58.921Z,57.90
2023-04-01T11:23:37.414Z,57.90
2023-04-01T11:25:04.081Z,58.30
2023-04-01T11:26:30.540Z,58.60
2023-04-01T11:27:54.492Z,59.10
2023-04-01T11:29:25.764Z,59.30
2023-04-01T11:30:55.427Z,60.30
2023-04-01T11:32:13.460Z,60.10
2023-04-01T11:33:27.109Z,60.20
2023-04-01T11:34:53.023Z,60.10
2023-04-01T11:36:20.166Z,60.00
2023-04-01T11:37:40.100Z,59.80
2023-04-01T11:39:21.709Z,60.00
2023-04-01T11:40:37.510Z,60.50
2023-04-01T11:41:52.247Z,61.10
2023-04-01T11:43:06.574Z,61.30
2023-04-01T11:44:19.277Z,61.50
2023-04-01T11:45:37.191Z,61.60
2023-04-01T11:46:56.311Z,61.20
2023-04-01T11:48:33.504Z,61.40
2023-04-01T11:49:59.317Z,61.70
2023-04-01T11:51:23.808Z,62.40
2023-04-01T11:52:46.249Z,61.90
2023-04-01T11:54:02.517Z,62.00
2023-04-01T11:55:34.265Z,62.50
2023-04-01T11:56:58.925Z,62.20
2023-04-01T11:58:33.531Z,62.70
2023-04-01T12:00:03.286Z,62.30
2023-04-01T12:01:38.764Z,62.60
2023-04-01T12:02:55.161Z,62.60
2023-04-01T12:04:37.869Z,62.90
2023-04-01T12:05:46.932Z,63.40
2023-04-01T12:07:01.872Z,63.30
2023-04-01T12:08:33.447Z,63.30
2023-04-01T12:09:47.566Z,63.70
2023-04-01T12:11:02.270Z,63.80
2023-04-01T12:12:19.241Z,64.10
2023-04-01T12:13:37.699Z,64.00
2023-04-01T12:14:51.764Z,64.10
2023-04-01T12:16:27.713Z,63.70
2023-04-01T12:17:40.724Z,63.70
2023-04-01T12:18:53.121Z,63.80
2023-04-01T12:20:14.016Z,64.20
2023-04-01T12:21:35.196Z,64.30
2023-04-01T12:23:36.686Z,64.20
2023-04-01T12:24:48.394Z,64.30
2023-04-01T12:26:28.808Z,64.50
2023-04-01T12:27:48.176Z,64.80
2023-04-01T12:29:17.760Z,64.60
2023-04-01T12:30:37.259Z,64.60
2023-04-01T12:31:50.188Z,64.80
2023-04-01T12:33:06.986Z,64.90
2023-04-01T12:34:41.897Z,65.10
2023-04-01T12:35:58.724Z,65.20
2023-04-01T12:37:14.056Z,65.20
2023-04-01T12:38:32.498Z,65.20
2023-04-01T12:39:53.820Z,65.20
2023-04-01T12:41:20.792Z,64.90
2023-04-01T12:42:46.678Z,65.00
2023-04-01T12:44:29.821Z,65.00
2023-04-01T12:45:34.353Z,65.20
2023-04-01T12:47:06.208Z,65.10
2023-04-01T12:48:36.002Z,64.80
2023-04-01T12:50:14.023Z,64.90
2023-04-01T12:51:37.902Z,64.70
2023-04-01T12:52:56.520Z,64.50
2023-04-01T12:54:26.251Z,64.40
2023-04-01T12:55:41.889Z,64.50
2023-04-01T12:57:01.218Z,64.50
2023-04-01T12:58:46.505Z,64.50
2023-04-01T13:00:14.773Z,64.70
2023-04-01T13:01:50.840Z,64.70
2023-04-01T13:03:15.703Z,64.80
2023-04-01T13:04:58.782Z,64.80
2023-04-01T13:06:27.597Z,65.10
2023-04-01T13:07:54.101Z,65.50
2023-04-01T13:09:17.810Z,65.50
2023-04-01T13:10:40.878Z,65.40
2023-04-01T13:12:00.377Z,65.30
2023-04-01T13:13:28.501Z,65.30
2023-04-01T13:14:51.955Z,65.30
2023-04-01T13:16:04.085Z,65.30
2023-04-01T13:17:20.015Z,64.80
2023-04-01T13:18:39.776Z,65.00
2023-04-01T13:20:04.156Z,65.10
2023-04-01T13:21:17.116Z,65.00
2023-04-01T13:22:29.467Z,64.80
2023-04-01T13:23:47.382Z,64.90
2023-04-01T13:25:04.023Z,64.90
2023-04-01T13:26:19.463Z,64.10
2023-04-01T13:27:30.680Z,64.70
2023-04-01T13:28:41.536Z,64.40
2023-04-01T13:29:53.478Z,64.60
2023-04-01T13:31:10.436Z,64.60
2023-04-01T13:32:40.825Z,64.60
2023-04-01T13:34:01.135Z,64.60
2023-04-01T13:35:31.602Z,64.80
2023-04-01T13:36:50.642Z,64.70
2023-04-01T13:38:10.392Z,65.10
2023-04-01T13:39:29.278Z,65.00
2023-04-01T13:40:55.732Z,64.80
2023-04-01T13:42:19.827Z,65.40
2023-04-01T13:43:27.998Z,65.40
2023-04-01T13:44:38.340Z,65.30
2023-04-01T13:46:04.407Z,65.40
2023-04-01T13:47:46.453Z,65.60
2023-04-01T13:49:26.587Z,65.50
2023-04-01T13:50:44.401Z,65.00
2023-04-01T13:52:26.232Z,65.10
2023-04-01T13:54:07.595Z,65.30
2023-04-01T13:55:41.777Z,65.30
2023-04-01T13:56:59.331Z,65.10
2023-04-01T13:58:32.364Z,65.10
2023-04-01T14:00:09.705Z,64.50
2023-04-01T14:01:22.239Z,64.30
2023-04-01T14:03:02.713Z,64.30
2023-04-01T14:04:32.395Z,64.30
2023-04-01T14:05:55.022Z,64.90
2023-04-01T14:07:18.470Z,65.50
2023-04-01T14:08:36.351Z,65.90
2023-04-01T14:10:07.737Z,66.10
2023-04-01T14:11:21.761Z,66.90
2023-04-01T14:12:32.655Z,66.70
2023-04-01T14:13:50.256Z,66.60
2023-04-01T14:15:11.028Z,66.30
2023-04-01T14:16:35.675Z,65.90
2023-04-01T14:17:58.524Z,65.90
2023-04-01T14:19:26.364Z,65.90
2023-04-01T14:20:41.463Z,65.90
2023-04-01T14:21:55.901Z,65.60
2023-04-01T14:23:18.936Z,65.60
2023-04-01T14:25:05.416Z,65.00
2023-04-01T14:26:37.615Z,64.80
2023-04-01T14:27:57.093Z,65.10
2023-04-01T14:29:15.068Z,65.30
2023-04-01T14:30:48.704Z,65.60
2023-04-01T14:32:12.381Z,65.20
2023-04-01T14:33:32.409Z,65.30
2023-04-01T14:34:51.747Z,65.30
2023-04-01T14:36:11.116Z,64.70
2023-04-01T14:37:57.854Z,64.70
2023-04-01T14:39:21.142Z,64.80
2023-04-01T14:40:35.956Z,64.90
2023-04-01T14:41:52.576Z,65.00
2023-04-01T14:43:30.776Z,65.00
2023-04-01T14:44:58.398Z,64.70
2023-04-01T14:46:19.425Z,64.60
2023-04-01T14:47:50.722Z,64.60
2023-04-01T14:48:59.206Z,64.60
2023-04-01T14:50:11.824Z,64.60
2023-04-01T14:51:22.864Z,64.70
2023-04-01T14:52:30.927Z,64.80
2023-04-01T14:53:41.596Z,64.80
2023-04-01T14:54:48.354Z,64.60
2023-04-01T14:55:56.517Z,64.60
2023-04-01T14:57:13.131Z,64.60
2023-04-01T14:58:17.388Z,64.80
2023-04-01T14:59:30.941Z,64.80
2023-04-01T15:00:55.611Z,65.00
2023-04-01T15:02:05.535Z,64.80
2023-04-01T15:03:21.620Z,65.00
2023-04-01T15:04:51.368Z,65.10
2023-04-01T15:06:09.178Z,65.00
2023-04-01T15:07:36.936Z,65.10
2023-04-01T15:08:55.091Z,64.90
2023-04-01T15:10:10.674Z,64.80
2023-04-01T15:11:37.754Z,64.60
2023-04-01T15:12:51.752Z,64.60
2023-04-01T15:14:22.293Z,64.60
2023-04-01T15:15:42.085Z,64.50
2023-04-01T15:16:56.961Z,64.50
2023-04-01T15:18:15.314Z,64.60
2023-04-01T15:19:32.572Z,64.80
2023-04-01T15:21:09.257Z,65.40
2023-04-01T15:22:40.676Z,64.70
2023-04-01T15:23:57.317Z,65.10
2023-04-01T15:25:19.055Z,65.00
2023-04-01T15:26:32.485Z,64.70
2023-04-01T15:27:46.291Z,64.90
2023-04-01T15:29:08.567Z,64.80
2023-04-01T15:30:32.152Z,64.80
2023-04-01T15:31:44.674Z,64.60
2023-04-01T15:33:19.730Z,64.60
2023-04-01T15:34:34.615Z,64.30
2023-04-01T15:35:48.886Z,64.20
2023-04-01T15:36:59.381Z,64.40
2023-04-01T15:38:12.928Z,64.30
2023-04-01T15:39:21.391Z,64.20
2023-04-01T15:40:30.563Z,64.20
2023-04-01T15:41:44.296Z,64.00
2023-04-01T15:43:05.348Z,64.00
2023-04-01T15:44:50.449Z,64.20
2023-04-01T15:46:10.920Z,64.10
2023-04-01T15:47:40.730Z,64.10
2023-04-01T15:49:07.831Z,64.00
2023-04-01T15:50:40.724Z,63.70
2023-04-01T15:52:07.881Z,63.80
2023-04-01T15:53:38.446Z,64.00
2023-04-01T15:55:14.135Z,64.00
2023-04-01T15:56:32.484Z,64.20
2023-04-01T15:57:47.557Z,64.10
2023-04-01T15:59:03.348Z,64.10
2023-04-01T16:00:24.592Z,64.30
2023-04-01T16:01:41.077Z,64.30
2023-04-01T16:02:50.604Z,64.30
2023-04-01T16:04:14.629Z,64.30
2023-04-01T16:05:36.051Z,64.30
2023-04-01T16:07:09.906Z,64.10
2023-04-01T16:08:27.897Z,64.20
2023-04-01T16:09:52.628Z,64.00
2023-04-01T16:11:10.921Z,64.30
2023-04-01T16:12:20.935Z,64.20